createdAt,value
2023-04-25T00:01:22.804Z,3.67
2023-04-25T00:03:50.270Z,3.28
2023-04-25T00:06:18.742Z,3.08
2023-04-25T00:08:45.568Z,3.75
2023-04-25T00:11:12.395Z,3.47
2023-04-25T00:13:42.702Z,3.17
2023-04-25T00:18:37.333Z,3.58
2023-04-25T00:21:07.100Z,3.42
2023-04-25T00:23:33.926Z,3.72
2023-04-25T00:26:00.706Z,3.50
2023-04-25T00:28:27.683Z,3.50
2023-04-25T00:30:54.607Z,3.40
2023-04-25T00:33:22.070Z,3.42
2023-04-25T00:35:48.826Z,4.07
2023-04-25T00:38:16.000Z,3.53
2023-04-25T00:40:44.660Z,3.60
2023-04-25T00:43:11.415Z,3.45
2023-04-25T00:45:40.399Z,3.40
2023-04-25T00:48:07.596Z,3.53
2023-04-25T00:50:35.716Z,2.83
2023-04-25T00:53:04.260Z,3.60
2023-04-25T00:55:32.429Z,3.78
2023-04-25T00:57:59.756Z,3.65
2023-04-25T01:00:26.536Z,3.60
2023-04-25T01:02:53.815Z,3.70
2023-04-25T01:05:20.729Z,3.33
2023-04-25T01:07:48.288Z,4.18
2023-04-25T01:10:15.176Z,3.33
2023-04-25T01:12:42.209Z,3.00
2023-04-25T01:15:09.387Z,4.03
2023-04-25T01:17:36.908Z,3.53
2023-04-25T01:20:08.428Z,3.45
2023-04-25T01:22:35.538Z,3.72
2023-04-25T01:25:02.959Z,3.28
2023-04-25T01:27:30.770Z,3.60
2023-04-25T01:29:57.865Z,3.72
2023-04-25T01:32:25.272Z,3.85
2023-04-25T01:34:52.119Z,3.58
2023-04-25T01:37:19.018Z,3.58
2023-04-25T01:39:46.085Z,3.80
2023-04-25T01:42:14.231Z,3.72
2023-04-25T01:44:41.038Z,3.55
2023-04-25T01:47:07.842Z,3.30
2023-04-25T01:49:34.662Z,3.67
2023-04-25T01:52:01.524Z,3.58
2023-04-25T01:54:28.344Z,3.90
2023-04-25T01:56:58.394Z,3.63
2023-04-25T01:59:25.885Z,3.50
2023-04-25T02:01:52.733Z,3.45
2023-04-25T02:04:19.681Z,3.67
2023-04-25T02:06:46.915Z,3.35
2023-04-25T02:09:13.614Z,3.47
2023-04-25T02:11:40.617Z,3.97
2023-04-25T02:14:07.354Z,3.58
2023-04-25T02:16:34.243Z,4.00
2023-04-25T02:19:01.184Z,3.45
2023-04-25T02:21:28.080Z,3.85
2023-04-25T02:23:55.108Z,3.78
2023-04-25T02:26:24.687Z,3.30
2023-04-25T02:28:52.477Z,3.08
2023-04-25T02:31:19.303Z,2.97
2023-04-25T02:33:46.209Z,3.10
2023-04-25T02:36:12.954Z,3.80
2023-04-25T02:38:40.105Z,3.45
2023-04-25T02:41:06.936Z,3.42
2023-04-25T02:43:33.687Z,3.30
2023-04-25T02:46:00.521Z,3.13
2023-04-25T02:48:27.311Z,2.85
2023-04-25T02:50:54.036Z,3.20
2023-04-25T02:53:20.972Z,3.20
2023-04-25T02:55:47.707Z,3.28
2023-04-25T02:58:14.614Z,3.05
2023-04-25T03:00:41.397Z,2.95
2023-04-25T03:03:08.255Z,2.97
2023-04-25T03:05:35.042Z,3.53
2023-04-25T03:08:01.780Z,3.50
2023-04-25T03:10:28.568Z,3.35
2023-04-25T03:12:55.416Z,3.42
2023-04-25T03:15:22.156Z,3.53
2023-04-25T03:17:48.927Z,3.47
2023-04-25T03:20:18.294Z,3.72
2023-04-25T03:22:46.008Z,3.72
2023-04-25T03:25:12.824Z,3.40
2023-04-25T03:27:39.607Z,3.45
2023-04-25T03:30:07.618Z,3.33
2023-04-25T03:32:34.869Z,3.42
2023-04-25T03:35:02.018Z,4.28
2023-04-25T03:37:28.769Z,4.00
2023-04-25T03:39:55.679Z,4.38
2023-04-25T03:42:23.882Z,4.78
2023-04-25T03:44:52.284Z,3.67
2023-04-25T03:47:18.996Z,2.92
2023-04-25T03:49:45.783Z,2.92
2023-04-25T03:52:12.548Z,2.88
2023-04-25T03:54:39.346Z,2.80
2023-04-25T03:57:06.093Z,2.50
2023-04-25T03:59:32.844Z,2.33
2023-04-25T04:01:59.635Z,3.00
2023-04-25T04:04:26.655Z,2.65
2023-04-25T04:06:53.812Z,2.53
2023-04-25T04:09:21.465Z,2.53
2023-04-25T04:11:48.380Z,2.45
2023-04-25T04:14:15.348Z,2.45
2023-04-25T04:16:42.563Z,2.28
2023-04-25T04:19:09.408Z,2.42
2023-04-25T04:21:36.273Z,2.70
2023-04-25T04:24:03.315Z,2.78
2023-04-25T04:26:30.257Z,2.28
2023-04-25T04:28:57.034Z,2.25
2023-04-25T04:31:24.882Z,2.80
2023-04-25T04:33:52.411Z,2.47
2023-04-25T04:36:23.000Z,2.20
2023-04-25T04:41:17.216Z,2.30
2023-04-25T04:43:44.390Z,2.53
2023-04-25T04:46:11.454Z,3.20
2023-04-25T04:48:38.282Z,2.78
2023-04-25T04:51:05.039Z,2.78
2023-04-25T04:53:31.763Z,2.50
2023-04-25T04:55:58.498Z,2.55
2023-04-25T04:58:25.355Z,2.90
2023-04-25T05:00:52.120Z,2.47
2023-04-25T05:03:19.022Z,2.53
2023-04-25T05:05:46.860Z,2.22
2023-04-25T05:08:13.613Z,2.30
2023-04-25T05:10:40.632Z,2.83
2023-04-25T05:13:07.328Z,2.67
2023-04-25T05:15:34.106Z,2.92
2023-04-25T05:18:00.889Z,2.60
2023-04-25T05:20:27.696Z,2.00
2023-04-25T05:22:54.359Z,2.40
2023-04-25T05:25:21.069Z,2.38
2023-04-25T05:27:47.855Z,2.38
2023-04-25T05:30:14.737Z,2.92
2023-04-25T05:32:41.584Z,2.00
2023-04-25T05:35:08.969Z,3.08
2023-04-25T05:37:35.818Z,2.53
2023-04-25T05:40:07.696Z,2.30
2023-04-25T05:42:34.532Z,2.30
2023-04-25T05:45:01.691Z,2.45
2023-04-25T05:47:29.315Z,2.15
2023-04-25T05:49:56.101Z,2.25
2023-04-25T05:52:23.672Z,3.55
2023-04-25T05:54:50.399Z,2.35
2023-04-25T05:57:27.147Z,2.00
2023-04-25T05:59:54.327Z,2.08
2023-04-25T06:02:22.555Z,2.10
2023-04-25T06:04:51.532Z,2.20
2023-04-25T06:07:19.127Z,2.28
2023-04-25T06:09:45.879Z,2.83
2023-04-25T06:12:12.754Z,2.40
2023-04-25T06:14:39.457Z,2.60
2023-04-25T06:17:09.519Z,2.00
2023-04-25T06:19:39.037Z,2.00
2023-04-25T06:22:05.842Z,2.23
2023-04-25T06:24:32.520Z,1.95
2023-04-25T06:26:59.264Z,2.28
2023-04-25T06:29:25.968Z,2.22
2023-04-25T06:31:53.171Z,2.30
2023-04-25T06:34:20.139Z,2.55
2023-04-25T06:36:46.937Z,2.15
2023-04-25T06:39:13.634Z,1.98
2023-04-25T06:41:40.370Z,2.38
2023-04-25T06:44:07.249Z,2.33
2023-04-25T06:46:34.064Z,3.03
2023-04-25T06:49:00.784Z,2.63
2023-04-25T06:51:30.073Z,2.70
2023-04-25T06:53:57.022Z,2.00
2023-04-25T06:56:24.455Z,2.03
2023-04-25T06:58:51.724Z,2.15
2023-04-25T07:01:18.698Z,2.00
2023-04-25T07:03:45.614Z,2.00
2023-04-25T07:06:12.592Z,2.20
2023-04-25T07:08:39.358Z,2.05
2023-04-25T07:11:06.331Z,2.45
2023-04-25T07:13:33.187Z,2.00
2023-04-25T07:16:00.995Z,2.00
2023-04-25T07:18:27.728Z,1.83
2023-04-25T07:20:54.431Z,2.00
2023-04-25T07:23:21.311Z,2.53
2023-04-25T07:25:48.301Z,1.73
2023-04-25T07:28:16.175Z,2.13
2023-04-25T07:30:44.395Z,2.42
2023-04-25T07:33:11.272Z,1.90
2023-04-25T07:35:38.097Z,2.38
2023-04-25T07:38:05.156Z,1.80
2023-04-25T07:40:31.890Z,1.88
2023-04-25T07:42:58.654Z,1.70
2023-04-25T07:45:25.949Z,2.00
2023-04-25T07:47:52.856Z,1.92
2023-04-25T07:50:19.650Z,1.65
2023-04-25T07:52:46.319Z,2.00
2023-04-25T07:55:13.038Z,1.75
2023-04-25T07:57:39.902Z,2.35
2023-04-25T08:00:10.374Z,1.77
2023-04-25T08:05:04.847Z,1.50
2023-04-25T08:07:31.785Z,1.83
2023-04-25T08:09:58.472Z,2.13
2023-04-25T08:12:25.928Z,2.00
2023-04-25T08:14:52.734Z,1.85
2023-04-25T08:17:19.516Z,1.98
2023-04-25T08:19:46.566Z,1.98
2023-04-25T08:22:13.800Z,1.67
2023-04-25T08:24:40.643Z,1.60
2023-04-25T08:27:08.707Z,1.80
2023-04-25T08:29:35.880Z,1.95
2023-04-25T08:32:02.663Z,1.60
2023-04-25T08:34:29.445Z,2.20
2023-04-25T08:36:56.266Z,1.80
2023-04-25T08:39:23.140Z,1.40
2023-04-25T08:41:49.927Z,1.60
2023-04-25T08:44:17.776Z,1.50
2023-04-25T08:46:50.958Z,1.40
2023-04-25T08:49:18.952Z,1.80
2023-04-25T08:51:48.251Z,1.80
2023-04-25T08:54:30.930Z,1.73
2023-04-25T08:57:05.311Z,1.85
2023-04-25T08:59:33.752Z,1.80
2023-04-25T09:02:01.642Z,1.73
2023-04-25T09:04:28.683Z,1.70
2023-04-25T09:06:55.532Z,1.92
2023-04-25T09:09:22.434Z,1.90
2023-04-25T09:11:49.587Z,1.80
2023-04-25T09:14:26.221Z,2.30
2023-04-25T09:17:02.644Z,1.60
2023-04-25T09:19:40.191Z,1.40
2023-04-25T09:22:08.108Z,1.45
2023-04-25T09:24:37.494Z,1.42
2023-04-25T09:27:07.316Z,2.50
2023-04-25T09:29:44.239Z,1.67
2023-04-25T09:32:20.143Z,1.63
2023-04-25T09:34:51.894Z,1.48
2023-04-25T09:37:21.473Z,1.83
2023-04-25T09:39:56.164Z,1.67
2023-04-25T09:42:24.994Z,1.40
2023-04-25T09:44:54.360Z,1.45
2023-04-25T09:47:23.480Z,1.48
2023-04-25T09:49:51.196Z,1.60
2023-04-25T09:52:25.393Z,1.50
2023-04-25T09:54:53.456Z,1.90
2023-04-25T09:57:26.934Z,1.95
2023-04-25T09:59:55.930Z,1.70
2023-04-25T10:02:26.311Z,1.38
2023-04-25T10:04:58.243Z,2.22
2023-04-25T10:07:28.179Z,1.40
2023-04-25T10:10:05.726Z,1.52
2023-04-25T10:12:33.726Z,1.40
2023-04-25T10:15:01.712Z,1.38
2023-04-25T10:17:29.148Z,1.80
2023-04-25T10:19:56.584Z,1.75
2023-04-25T10:22:36.964Z,1.50
2023-04-25T10:27:34.799Z,1.70
2023-04-25T10:30:07.224Z,1.58
2023-04-25T10:32:34.581Z,1.58
2023-04-25T10:35:18.414Z,2.20
2023-04-25T10:38:07.250Z,1.50
2023-04-25T10:40:34.638Z,1.85
2023-04-25T10:43:32.089Z,2.10
2023-04-25T10:46:01.406Z,1.60
2023-04-25T10:48:30.099Z,1.50
2023-04-25T10:51:10.649Z,1.88
2023-04-25T10:53:37.597Z,1.55
2023-04-25T10:56:33.560Z,1.60
2023-04-25T10:59:12.439Z,1.42
2023-04-25T11:01:43.432Z,1.48
2023-04-25T11:04:32.429Z,1.67
2023-04-25T11:07:11.261Z,1.63
2023-04-25T11:09:41.381Z,1.35
2023-04-25T11:12:12.936Z,1.40
2023-04-25T11:17:12.664Z,1.60
2023-04-25T11:19:39.799Z,1.73
2023-04-25T11:22:07.860Z,1.40
2023-04-25T11:24:36.150Z,1.70
2023-04-25T11:27:04.670Z,1.33
2023-04-25T11:29:33.241Z,1.50
2023-04-25T11:32:01.990Z,1.45
2023-04-25T11:34:33.993Z,1.60
2023-04-25T11:37:02.876Z,1.40
2023-04-25T11:39:30.672Z,1.30
2023-04-25T11:41:57.672Z,1.50
2023-04-25T11:44:24.595Z,1.55
2023-04-25T11:46:51.501Z,1.40
2023-04-25T11:49:19.514Z,1.25
2023-04-25T11:51:48.877Z,1.50
2023-04-25T11:54:16.431Z,1.23
2023-04-25T11:56:44.420Z,1.40
2023-04-25T11:59:11.897Z,1.50
2023-04-25T12:01:42.204Z,1.48
2023-04-25T12:04:23.017Z,1.65
2023-04-25T12:06:54.526Z,1.85
2023-04-25T12:09:29.445Z,1.63
2023-04-25T12:11:57.343Z,1.50
2023-04-25T12:14:29.810Z,1.40
2023-04-25T12:16:58.930Z,1.50
2023-04-25T12:19:26.870Z,1.40
2023-04-25T12:21:58.520Z,1.50
2023-04-25T12:24:28.421Z,1.30
2023-04-25T12:27:05.558Z,1.23
2023-04-25T12:29:48.397Z,1.75
2023-04-25T12:32:16.849Z,1.38
2023-04-25T12:34:43.608Z,1.42
2023-04-25T12:37:10.492Z,1.45
2023-04-25T12:39:37.484Z,1.40
2023-04-25T12:42:05.706Z,1.23
2023-04-25T12:47:02.237Z,1.40
2023-04-25T12:49:29.102Z,1.55
2023-04-25T12:51:55.971Z,1.60
2023-04-25T12:54:22.721Z,1.30
2023-04-25T12:56:49.588Z,1.20
2023-04-25T12:59:16.419Z,1.40
2023-04-25T13:01:43.930Z,1.50
2023-04-25T13:04:10.905Z,1.85
2023-04-25T13:06:38.070Z,1.77
2023-04-25T13:09:05.411Z,1.35
2023-04-25T13:11:32.475Z,1.88
2023-04-25T13:13:59.854Z,1.83
2023-04-25T13:16:26.590Z,1.80
2023-04-25T13:18:53.344Z,1.50
2023-04-25T13:21:20.044Z,1.40
2023-04-25T13:23:47.750Z,1.70
2023-04-25T13:26:14.645Z,1.80
2023-04-25T13:28:43.581Z,1.65
2023-04-25T13:31:11.661Z,1.58
2023-04-25T13:33:38.490Z,1.70
2023-04-25T13:36:05.346Z,1.50
2023-04-25T13:38:32.115Z,1.48
2023-04-25T13:40:58.888Z,1.45
2023-04-25T13:43:25.879Z,1.38
2023-04-25T13:45:52.802Z,1.35
2023-04-25T13:48:20.937Z,1.30
2023-04-25T13:50:47.766Z,1.63
2023-04-25T13:53:14.567Z,1.30
2023-04-25T13:55:41.526Z,1.52
2023-04-25T13:58:09.093Z,1.20
2023-04-25T14:00:40.352Z,1.70
2023-04-25T14:03:11.042Z,1.58
2023-04-25T14:05:39.345Z,1.50
2023-04-25T14:08:08.188Z,1.65
2023-04-25T14:10:35.634Z,1.60
2023-04-25T14:13:04.374Z,1.77
2023-04-25T14:15:34.536Z,1.65
2023-04-25T14:18:02.194Z,1.60
2023-04-25T14:20:29.683Z,1.83
2023-04-25T14:22:58.399Z,1.58
2023-04-25T14:25:25.611Z,1.50
2023-04-25T14:27:52.521Z,1.38
2023-04-25T14:30:20.525Z,1.38
2023-04-25T14:32:47.726Z,2.00
2023-04-25T14:35:14.578Z,1.70
2023-04-25T14:37:41.675Z,1.80
2023-04-25T14:40:13.112Z,1.52
2023-04-25T14:42:40.861Z,1.70
2023-04-25T14:45:09.507Z,1.73
2023-04-25T14:47:37.991Z,1.88
2023-04-25T14:50:05.843Z,1.35
2023-04-25T14:52:32.712Z,1.80
2023-04-25T14:55:01.500Z,1.63
2023-04-25T14:57:28.342Z,1.40
2023-04-25T14:59:55.419Z,1.98
2023-04-25T15:02:22.695Z,1.67
2023-04-25T15:04:49.772Z,1.60
2023-04-25T15:07:18.471Z,1.70
2023-04-25T15:09:45.753Z,1.75
2023-04-25T15:12:13.057Z,2.55
2023-04-25T15:14:39.872Z,1.58
2023-04-25T15:17:07.241Z,1.60
2023-04-25T15:19:34.056Z,1.50
2023-04-25T15:22:02.372Z,1.70
2023-04-25T15:24:29.913Z,1.50
2023-04-25T15:26:56.730Z,1.75
2023-04-25T15:29:23.690Z,1.38
2023-04-25T15:31:50.665Z,1.65
2023-04-25T15:34:17.514Z,1.75
2023-04-25T15:36:44.444Z,1.67
2023-04-25T15:39:11.518Z,1.58
2023-04-25T15:41:38.445Z,1.73
2023-04-25T15:44:06.467Z,1.63
2023-04-25T15:46:33.373Z,1.63
2023-04-25T15:49:00.229Z,1.60
2023-04-25T15:51:28.239Z,1.80
2023-04-25T15:53:55.014Z,1.45
2023-04-25T15:56:22.004Z,1.58
2023-04-25T15:58:48.960Z,1.40
2023-04-25T16:01:15.879Z,1.58
2023-04-25T16:03:42.936Z,1.40
2023-04-25T16:06:10.067Z,1.58
2023-04-25T16:08:36.961Z,1.45
2023-04-25T16:11:03.828Z,1.60
2023-04-25T16:13:30.704Z,1.92
2023-04-25T16:15:57.874Z,1.80
2023-04-25T16:18:24.872Z,2.00
2023-04-25T16:20:51.819Z,1.65
2023-04-25T16:23:19.339Z,1.98
2023-04-25T16:25:46.220Z,1.50
2023-04-25T16:28:13.064Z,2.65
2023-04-25T16:30:39.869Z,1.58
2023-04-25T16:33:06.846Z,1.77
2023-04-25T16:35:33.719Z,1.70
2023-04-25T16:38:01.172Z,2.17
2023-04-25T16:40:28.109Z,1.98
2023-04-25T16:42:54.972Z,1.60
2023-04-25T16:45:22.245Z,1.65
2023-04-25T16:47:49.084Z,1.67
2023-04-25T16:50:16.521Z,1.73
2023-04-25T16:52:44.597Z,1.80
2023-04-25T16:55:11.718Z,1.77
2023-04-25T16:57:39.045Z,1.90
2023-04-25T17:00:09.658Z,1.80
2023-04-25T17:02:37.154Z,1.67
2023-04-25T17:05:04.409Z,1.70
2023-04-25T17:07:31.295Z,1.90
2023-04-25T17:09:59.534Z,2.28
2023-04-25T17:12:27.437Z,1.88
2023-04-25T17:14:54.234Z,1.88
2023-04-25T17:17:21.489Z,2.00
2023-04-25T17:19:48.351Z,1.67
2023-04-25T17:22:15.248Z,1.85
2023-04-25T17:24:42.112Z,1.60
2023-04-25T17:27:09.023Z,2.25
2023-04-25T17:29:35.906Z,2.00
2023-04-25T17:32:03.579Z,1.80
2023-04-25T17:34:31.836Z,2.17
2023-04-25T17:36:58.742Z,1.85
2023-04-25T17:39:25.567Z,2.08
2023-04-25T17:41:52.759Z,1.92
2023-04-25T17:44:19.656Z,1.70
2023-04-25T17:46:47.052Z,2.10
2023-04-25T17:49:13.857Z,2.20
2023-04-25T17:51:40.741Z,2.17
2023-04-25T17:54:08.341Z,2.30
2023-04-25T17:56:39.177Z,2.13
2023-04-25T17:59:06.220Z,2.00
2023-04-25T18:01:33.262Z,2.20
2023-04-25T18:04:00.310Z,1.83
2023-04-25T18:06:28.363Z,2.38
2023-04-25T18:08:57.121Z,2.10
2023-04-25T18:11:24.467Z,2.75
2023-04-25T18:13:51.731Z,2.30
2023-04-25T18:16:18.856Z,1.95
2023-04-25T18:18:53.279Z,1.88
2023-04-25T18:21:20.767Z,2.85
2023-04-25T18:23:47.870Z,1.95
2023-04-25T18:26:15.945Z,2.20
2023-04-25T18:28:42.878Z,2.88
2023-04-25T18:31:09.784Z,2.30
2023-04-25T18:33:36.760Z,2.63
2023-04-25T18:36:03.647Z,2.10
2023-04-25T18:41:13.041Z,2.55
2023-04-25T18:43:47.057Z,2.40
2023-04-25T18:46:13.924Z,2.70
2023-04-25T18:48:40.788Z,2.15
2023-04-25T18:51:07.741Z,2.50
2023-04-25T18:53:34.682Z,2.10
2023-04-25T18:56:01.656Z,2.13
2023-04-25T18:58:28.434Z,2.75
2023-04-25T19:00:55.461Z,2.72
2023-04-25T19:03:22.933Z,2.53
2023-04-25T19:05:49.834Z,2.42
2023-04-25T19:08:16.702Z,2.35
2023-04-25T19:10:43.904Z,2.42
2023-04-25T19:13:11.089Z,2.50
2023-04-25T19:15:38.021Z,2.72
2023-04-25T19:18:05.130Z,2.58
2023-04-25T19:20:33.873Z,2.70
2023-04-25T19:23:01.036Z,2.72
2023-04-25T19:25:28.032Z,3.30
2023-04-25T19:27:54.967Z,3.13
2023-04-25T19:30:21.960Z,2.70
2023-04-25T19:32:49.421Z,3.03
2023-04-25T19:35:18.208Z,3.13
2023-04-25T19:37:48.210Z,2.45
2023-04-25T19:40:16.391Z,2.92
2023-04-25T19:42:44.280Z,2.97
2023-04-25T19:45:12.299Z,2.80
2023-04-25T19:47:39.372Z,3.13
2023-04-25T19:50:08.574Z,3.40
2023-04-25T19:52:36.559Z,3.03
2023-04-25T19:55:05.026Z,3.03
2023-04-25T19:57:37.835Z,3.60
2023-04-25T20:00:09.024Z,6.07
2023-04-25T20:02:36.864Z,3.20
2023-04-25T20:05:06.032Z,4.30
2023-04-25T20:07:33.229Z,5.55
2023-04-25T20:10:01.856Z,5.75
2023-04-25T20:12:29.764Z,6.90
2023-04-25T20:14:56.718Z,6.40
2023-04-25T20:17:23.524Z,5.32
2023-04-25T20:19:50.453Z,4.28
2023-04-25T20:22:17.445Z,3.67
2023-04-25T20:24:44.287Z,3.38
2023-04-25T20:27:11.140Z,3.65
2023-04-25T20:29:37.971Z,3.40
2023-04-25T20:32:05.251Z,3.47
2023-04-25T20:34:32.198Z,2.97
2023-04-25T20:36:59.310Z,3.30
2023-04-25T20:39:26.904Z,3.28
2023-04-25T20:41:54.637Z,3.28
2023-04-25T20:44:23.500Z,2.90
2023-04-25T20:46:50.689Z,3.40
2023-04-25T20:49:17.557Z,2.90
2023-04-25T20:51:46.772Z,3.30
2023-04-25T20:54:13.836Z,2.70
2023-04-25T20:56:40.704Z,2.95
2023-04-25T20:59:07.558Z,2.85
2023-04-25T21:01:34.646Z,3.53
2023-04-25T21:04:01.954Z,3.53
2023-04-25T21:06:29.519Z,2.95
2023-04-25T21:08:56.439Z,3.30
2023-04-25T21:11:23.623Z,3.50
2023-04-25T21:13:50.790Z,3.30
2023-04-25T21:16:17.624Z,3.20
2023-04-25T21:18:44.440Z,3.72
2023-04-25T21:21:11.349Z,3.00
2023-04-25T21:23:38.245Z,3.20
2023-04-25T21:26:05.623Z,3.30
2023-04-25T21:28:32.369Z,3.10
2023-04-25T21:30:59.386Z,4.00
2023-04-25T21:33:26.438Z,3.42
2023-04-25T21:35:54.264Z,2.97
2023-04-25T21:38:22.200Z,4.15
2023-04-25T21:40:49.879Z,3.35
2023-04-25T21:43:16.757Z,3.83
2023-04-25T21:46:11.123Z,3.38
2023-04-25T21:48:30.728Z,2.97
2023-04-25T21:50:57.532Z,3.38
2023-04-25T21:53:26.405Z,3.50
2023-04-25T21:55:53.321Z,3.25
2023-04-25T21:58:20.070Z,3.33
2023-04-25T22:00:47.370Z,3.50
2023-04-25T22:03:16.268Z,3.13
2023-04-25T22:05:44.263Z,3.55
2023-04-25T22:08:11.292Z,3.05
2023-04-25T22:10:39.893Z,3.30
2023-04-25T22:13:06.728Z,3.17
2023-04-25T22:15:33.761Z,2.78
2023-04-25T22:18:00.762Z,3.10
2023-04-25T22:20:28.151Z,3.22
2023-04-25T22:22:56.421Z,2.92
2023-04-25T22:25:24.012Z,2.88
2023-04-25T22:27:51.543Z,3.50
2023-04-25T22:30:18.517Z,3.20
2023-04-25T22:32:45.382Z,3.08
2023-04-25T22:35:12.426Z,3.42
2023-04-25T22:37:40.864Z,3.72
2023-04-25T22:40:09.186Z,3.47
2023-04-25T22:42:44.247Z,3.28
2023-04-25T22:45:12.247Z,3.20
2023-04-25T22:47:39.941Z,3.05
2023-04-25T22:50:12.797Z,3.20
2023-04-25T22:52:40.551Z,4.18
2023-04-25T22:55:07.584Z,3.58
2023-04-25T22:57:37.566Z,3.17
2023-04-25T23:00:15.428Z,3.67
2023-04-25T23:02:46.774Z,3.50
2023-04-25T23:05:14.994Z,3.88
2023-04-25T23:07:43.660Z,3.20
2023-04-25T23:10:11.018Z,3.30
2023-04-25T23:12:37.987Z,3.05
2023-04-25T23:15:05.451Z,3.22
2023-04-25T23:17:32.740Z,3.30
2023-04-25T23:19:59.567Z,3.40
2023-04-25T23:22:26.333Z,3.75
2023-04-25T23:24:53.335Z,3.50
2023-04-25T23:27:20.136Z,3.60
2023-04-25T23:29:54.779Z,3.70
2023-04-25T23:32:22.369Z,3.35
2023-04-25T23:34:49.535Z,3.47
2023-04-25T23:37:16.515Z,3.28
2023-04-25T23:39:50.909Z,3.40
2023-04-25T23:42:18.568Z,3.33
2023-04-25T23:44:45.363Z,4.10
2023-04-25T23:47:13.834Z,3.53
2023-04-25T23:49:41.060Z,3.50
2023-04-25T23:52:08.081Z,3.28
2023-04-25T23:54:35.093Z,3.28
2023-04-25T23:57:04.421Z,3.15
2023-04-25T23:59:31.741Z,3.45
